Time;durP1;ratioP1;P1;durP2;ratioP2;P2;SDS_P1;SDS_P2;PMS_P1;PMS_P2;Temp;Humidity;BMP_temperature;BMP_pressure;BME280_temperature;BME280_humidity;BME280_pressure;Samples;Min_cycle;Max_cycle;Signal;HPM_P1;HPM_P2
2022/11/04 00:01:27;;;;;;;0.95;0.60;;;;;;;;;;21085889;28;20044;-66
2022/11/04 00:42:31;;;;;;;1.17;0.80;;;;;;;;;;21082366;28;20054;-67
2022/11/04 00:52:33;;;;;;;1.23;0.70;;;;;;;;;;21082827;28;20446;-70
2022/11/04 01:02:35;;;;;;;1.75;0.93;;;;;;;;;;21082215;28;20055;-72
2022/11/04 01:12:37;;;;;;;1.27;0.85;;;;;;;;;;21080461;28;20052;-72
2022/11/04 01:22:39;;;;;;;1.45;1.15;;;;;;;;;;21079832;28;20048;-66
2022/11/04 01:32:41;;;;;;;1.40;0.80;;;;;;;;;;21079932;28;20137;-70
2022/11/04 01:42:43;;;;;;;1.45;1.00;;;;;;;;;;21078988;28;20056;-70
2022/11/04 01:52:50;;;;;;;1.30;1.00;;;;;;;;;;21084657;28;20044;-71
2022/11/04 02:03:03;;;;;;;1.17;0.80;;;;;;;;;;21078148;28;20052;-70
2022/11/04 02:13:05;;;;;;;1.38;0.80;;;;;;;;;;21094239;28;20048;-71
2022/11/04 02:23:16;;;;;;;2.45;1.08;;;;;;;;;;21094493;28;20150;-70
2022/11/04 02:33:27;;;;;;;2.38;1.10;;;;;;;;;;21093764;28;20475;-70
2022/11/04 02:43:29;;;;;;;1.33;0.98;;;;;;;;;;21091724;28;20063;-69
2022/11/04 02:53:40;;;;;;;2.15;1.08;;;;;;;;;;21091840;28;20112;-71
2022/11/04 03:03:53;;;;;;;1.13;0.75;;;;;;;;;;21090295;28;20044;-65
2022/11/04 03:13:58;;;;;;;3.75;0.93;;;;;;;;;;21090332;28;20067;-66
2022/11/04 03:24:00;;;;;;;1.85;1.02;;;;;;;;;;21089679;28;20048;-70
2022/11/04 03:34:01;;;;;;;1.55;0.98;;;;;;;;;;21088177;28;20104;-65
2022/11/04 03:44:03;;;;;;;1.88;0.98;;;;;;;;;;21087112;28;20056;-70
2022/11/04 03:54:05;;;;;;;1.65;1.00;;;;;;;;;;21086568;28;20373;-70
2022/11/04 04:04:22;;;;;;;2.25;1.30;;;;;;;;;;21085737;28;20408;-71
2022/11/04 04:14:43;;;;;;;1.75;1.13;;;;;;;;;;21083902;28;20055;-73
2022/11/04 04:45:37;;;;;;;2.70;0.60;;;;;;;;;;21082183;28;20044;-71
2022/11/04 04:55:39;;;;;;;1.27;0.40;;;;;;;;;;21081717;28;20055;-71
2022/11/04 05:05:42;;;;;;;1.23;0.30;;;;;;;;;;21081942;28;20549;-69
2022/11/04 05:15:44;;;;;;;0.95;0.40;;;;;;;;;;21080298;28;20051;-65
2022/11/04 05:25:47;;;;;;;2.28;0.52;;;;;;;;;;21079629;28;20052;-69
2022/11/04 05:35:49;;;;;;;0.82;0.40;;;;;;;;;;21080339;28;20123;-67
2022/11/04 05:45:51;;;;;;;0.63;0.50;;;;;;;;;;21079088;28;20058;-66
2022/11/04 05:55:53;;;;;;;2.03;0.65;;;;;;;;;;21079043;28;20074;-64
2022/11/04 06:05:56;;;;;;;2.70;0.77;;;;;;;;;;21079041;28;20048;-70
2022/11/04 06:15:58;;;;;;;1.42;0.70;;;;;;;;;;21078651;28;20383;-69
2022/11/04 06:26:00;;;;;;;1.77;0.60;;;;;;;;;;21077851;28;20141;-72
2022/11/04 06:36:03;;;;;;;1.40;0.60;;;;;;;;;;21078848;28;20154;-70
2022/11/04 06:46:05;;;;;;;1.92;0.63;;;;;;;;;;21091952;28;20074;-69
2022/11/04 06:56:09;;;;;;;2.45;0.60;;;;;;;;;;21091542;28;20044;-68
2022/11/04 07:06:12;;;;;;;6.00;0.88;;;;;;;;;;21090947;28;20055;-70
2022/11/04 07:16:14;;;;;;;2.25;0.77;;;;;;;;;;21089215;28;20048;-69
2022/11/04 07:26:17;;;;;;;2.83;1.10;;;;;;;;;;21088077;28;20052;-67
2022/11/04 07:36:19;;;;;;;4.18;1.08;;;;;;;;;;21088103;28;20052;-72
2022/11/04 07:46:22;;;;;;;2.20;1.27;;;;;;;;;;21087248;28;20059;-67
2022/11/04 07:56:25;;;;;;;3.80;1.10;;;;;;;;;;21084882;28;20044;-66
2022/11/04 08:06:27;;;;;;;7.55;2.47;;;;;;;;;;21085076;28;20088;-67
2022/11/04 08:16:29;;;;;;;24.17;3.38;;;;;;;;;;21085094;28;20400;-66
2022/11/04 08:26:31;;;;;;;2.78;0.75;;;;;;;;;;21083730;28;20407;-66
2022/11/04 08:36:35;;;;;;;1.13;0.75;;;;;;;;;;21084001;28;20496;-66
2022/11/04 08:46:38;;;;;;;3.08;0.80;;;;;;;;;;21082122;28;20060;-67
2022/11/04 08:56:41;;;;;;;1.98;0.75;;;;;;;;;;21081053;28;20048;-71
2022/11/04 09:06:45;;;;;;;3.83;0.80;;;;;;;;;;21080989;28;20052;-66
2022/11/04 09:16:47;;;;;;;7.22;0.88;;;;;;;;;;21080341;28;20079;-72
2022/11/04 09:26:50;;;;;;;3.30;0.85;;;;;;;;;;21079893;28;20591;-67
2022/11/04 09:36:55;;;;;;;3.97;0.80;;;;;;;;;;21078982;28;20044;-69
2022/11/04 09:47:02;;;;;;;3.08;0.70;;;;;;;;;;21078699;28;20083;-71
2022/11/04 09:57:04;;;;;;;2.58;0.60;;;;;;;;;;21078996;28;20044;-72
2022/11/04 10:07:13;;;;;;;2.88;0.40;;;;;;;;;;21078796;28;20048;-67
2022/11/04 10:17:18;;;;;;;1.30;0.57;;;;;;;;;;21089622;28;20066;-70
2022/11/04 10:27:26;;;;;;;3.08;0.55;;;;;;;;;;21094587;28;20063;-67
2022/11/04 10:37:28;;;;;;;1.38;0.35;;;;;;;;;;21094115;28;20051;-68
2022/11/04 10:47:38;;;;;;;2.15;0.57;;;;;;;;;;21092651;28;20480;-69
2022/11/04 10:57:40;;;;;;;3.37;0.67;;;;;;;;;;21092404;28;20052;-68
2022/11/04 11:07:46;;;;;;;3.78;0.88;;;;;;;;;;21090501;28;20134;-67
2022/11/04 11:17:50;;;;;;;2.85;0.65;;;;;;;;;;21090038;28;20480;-71
2022/11/04 11:28:06;;;;;;;2.45;0.70;;;;;;;;;;21088304;28;20606;-77
2022/11/04 11:38:20;;;;;;;2.88;0.85;;;;;;;;;;21087967;28;20486;-68
2022/11/04 11:48:41;;;;;;;3.70;0.80;;;;;;;;;;21085868;28;20055;-75
2022/11/04 11:58:54;;;;;;;1.35;0.50;;;;;;;;;;21068567;28;20048;-78
2022/11/04 12:08:59;;;;;;;4.15;0.70;;;;;;;;;;21085088;28;20056;-67
2022/11/04 12:19:02;;;;;;;6.70;0.70;;;;;;;;;;21085192;28;20051;-75
2022/11/04 12:29:07;;;;;;;6.13;1.13;;;;;;;;;;21085478;28;20138;-71
2022/11/04 12:39:09;;;;;;;3.60;0.93;;;;;;;;;;21083317;28;20048;-69
2022/11/04 12:49:30;;;;;;;2.30;1.10;;;;;;;;;;21081541;28;20087;-72
2022/11/04 12:59:33;;;;;;;3.72;1.90;;;;;;;;;;21080648;28;20048;-69
2022/11/04 13:09:53;;;;;;;3.90;1.30;;;;;;;;;;21080487;28;20047;-67
2022/11/04 13:20:00;;;;;;;3.15;0.95;;;;;;;;;;21080585;28;20044;-70
2022/11/04 13:30:20;;;;;;;3.97;0.77;;;;;;;;;;21079876;28;20044;-67
2022/11/04 13:40:28;;;;;;;2.03;0.70;;;;;;;;;;21078563;28;20056;-67
2022/11/04 13:50:35;;;;;;;9.10;2.78;;;;;;;;;;21088863;28;20454;-70
2022/11/04 14:00:38;;;;;;;2.03;0.80;;;;;;;;;;21096709;28;20400;-66
2022/11/04 14:10:50;;;;;;;4.07;1.58;;;;;;;;;;21094577;28;20052;-70
2022/11/04 14:21:14;;;;;;;1.98;0.80;;;;;;;;;;21095244;28;20438;-66
2022/11/04 14:31:52;;;;;;;2.88;1.30;;;;;;;;;;21093492;28;20092;-70
2022/11/04 14:41:56;;;;;;;2.33;1.10;;;;;;;;;;20671798;28;20050;-68
2022/11/04 14:51:58;;;;;;;5.18;1.10;;;;;;;;;;20671159;28;20050;-71
2022/11/04 15:02:00;;;;;;;3.45;0.93;;;;;;;;;;20670019;28;20046;-67
2022/11/04 15:22:31;;;;;;;10.97;1.60;;;;;;;;;;21005647;28;20092;-69
2022/11/04 15:32:33;;;;;;;5.90;1.60;;;;;;;;;;21005448;28;20055;-68
2022/11/04 15:42:44;;;;;;;4.68;1.60;;;;;;;;;;21010020;28;20056;-70
2022/11/04 15:52:55;;;;;;;7.82;2.13;;;;;;;;;;21087734;28;20048;-71
2022/11/04 16:02:58;;;;;;;4.80;1.65;;;;;;;;;;21086500;28;20416;-68
2022/11/04 16:13:02;;;;;;;3.78;1.55;;;;;;;;;;21084913;28;20040;-69
2022/11/04 16:23:04;;;;;;;7.15;3.38;;;;;;;;;;21084765;28;20047;-69
2022/11/04 16:33:11;;;;;;;3.83;1.02;;;;;;;;;;21084566;28;20386;-67
2022/11/04 16:43:14;;;;;;;3.80;1.20;;;;;;;;;;21082245;28;20092;-66
2022/11/04 16:53:16;;;;;;;3.92;1.48;;;;;;;;;;21082216;28;20040;-66
2022/11/04 17:03:22;;;;;;;3.38;0.85;;;;;;;;;;21081803;28;20048;-65
2022/11/04 17:13:24;;;;;;;3.47;0.68;;;;;;;;;;21081717;28;20044;-67
2022/11/04 17:23:26;;;;;;;4.43;0.70;;;;;;;;;;21080333;28;20101;-70
2022/11/04 17:33:28;;;;;;;1.92;0.40;;;;;;;;;;21080262;28;20495;-71
2022/11/04 17:53:52;;;;;;;5.47;1.00;;;;;;;;;;21079392;28;20499;-68
2022/11/04 18:03:54;;;;;;;1.73;0.68;;;;;;;;;;21079210;28;20052;-68
2022/11/04 18:13:56;;;;;;;3.00;0.60;;;;;;;;;;21079144;28;20051;-67
2022/11/04 18:23:58;;;;;;;4.15;0.85;;;;;;;;;;21077613;28;20056;-67
2022/11/04 18:34:01;;;;;;;3.10;0.80;;;;;;;;;;21082256;28;20044;-67
2022/11/04 18:44:03;;;;;;;1.95;0.60;;;;;;;;;;21092565;28;20099;-66
2022/11/04 18:54:06;;;;;;;2.42;0.80;;;;;;;;;;21091744;28;20442;-67
2022/11/04 19:04:08;;;;;;;4.65;0.85;;;;;;;;;;21092922;28;20090;-71
2022/11/04 19:14:15;;;;;;;3.15;1.08;;;;;;;;;;21090685;28;20135;-66
2022/11/04 19:24:17;;;;;;;2.83;1.10;;;;;;;;;;21090454;28;20178;-67
2022/11/04 19:34:19;;;;;;;2.67;1.20;;;;;;;;;;21089535;28;20056;-69
2022/11/04 19:44:21;;;;;;;3.50;1.02;;;;;;;;;;21087854;28;20056;-69
2022/11/04 19:54:22;;;;;;;5.47;2.10;;;;;;;;;;21088601;28;20472;-67
2022/11/04 20:04:24;;;;;;;3.55;1.38;;;;;;;;;;21086389;28;20048;-66
2022/11/04 20:14:26;;;;;;;7.60;1.58;;;;;;;;;;21085717;28;20105;-66
2022/11/04 20:24:29;;;;;;;6.53;1.80;;;;;;;;;;21084426;28;20058;-68
2022/11/04 20:34:32;;;;;;;5.40;1.98;;;;;;;;;;21084365;28;20389;-65
2022/11/04 20:44:34;;;;;;;6.03;1.80;;;;;;;;;;21082852;28;20067;-71
2022/11/04 20:54:36;;;;;;;7.57;2.50;;;;;;;;;;21082426;28;20048;-66
2022/11/04 21:04:38;;;;;;;9.50;2.10;;;;;;;;;;21081859;28;20078;-67
2022/11/04 21:14:40;;;;;;;8.82;4.25;;;;;;;;;;21081778;28;20468;-67
2022/11/04 21:24:45;;;;;;;9.70;3.63;;;;;;;;;;21063243;28;20389;-65
2022/11/04 21:34:47;;;;;;;7.40;2.78;;;;;;;;;;21081201;28;20052;-69
2022/11/04 21:44:49;;;;;;;7.68;2.78;;;;;;;;;;21079892;28;20058;-67
2022/11/04 21:54:50;;;;;;;9.07;2.92;;;;;;;;;;21079166;28;20416;-67
2022/11/04 22:04:52;;;;;;;4.30;1.67;;;;;;;;;;21079949;28;20048;-70
2022/11/04 22:14:54;;;;;;;8.30;2.22;;;;;;;;;;21093179;28;20044;-66
2022/11/04 22:25:02;;;;;;;5.05;2.03;;;;;;;;;;21094863;28;20134;-68
2022/11/04 22:35:04;;;;;;;3.65;1.73;;;;;;;;;;21094141;28;20044;-69
2022/11/04 22:45:07;;;;;;;6.13;1.70;;;;;;;;;;21075222;28;20047;-66
2022/11/04 22:55:10;;;;;;;3.45;2.15;;;;;;;;;;21092170;28;20048;-66
2022/11/04 23:05:12;;;;;;;4.40;1.73;;;;;;;;;;21091624;28;20044;-69
2022/11/04 23:25:34;;;;;;;7.20;1.58;;;;;;;;;;21089992;28;20048;-67
